Time;durP1;ratioP1;P1;durP2;ratioP2;P2;SDS_P1;SDS_P2;PMS_P1;PMS_P2;Temp;Humidity;BMP_temperature;BMP_pressure;BME280_temperature;BME280_humidity;BME280_pressure;Samples;Min_cycle;Max_cycle;Signal;HPM_P1;HPM_P2
2023/11/15 00:02:15;;;;;;;11.97;6.73;;;;;;;9.73;93.37;94523.13;5031453;28;20954;-74
2023/11/15 00:04:43;;;;;;;11.20;6.30;;;;;;;9.64;93.06;94493.34;5031303;28;20509;-74
2023/11/15 00:07:10;;;;;;;13.77;7.43;;;;;;;9.59;93.81;94532.22;5031254;28;20456;-74
2023/11/15 00:09:37;;;;;;;9.47;7.00;;;;;;;9.45;93.87;94482.81;5031198;28;20447;-75
2023/11/15 00:12:05;;;;;;;6.90;6.20;;;;;;;9.38;94.53;94513.94;5030740;28;20959;-74
2023/11/15 00:14:33;;;;;;;8.87;6.10;;;;;;;9.32;94.97;94499.59;5030789;28;20489;-74
2023/11/15 00:17:00;;;;;;;10.40;6.33;;;;;;;9.20;95.13;94471.81;5031113;28;20925;-75
2023/11/15 00:19:30;;;;;;;8.63;5.83;;;;;;;9.29;95.90;94512.94;5031066;28;20442;-74
2023/11/15 00:22:02;;;;;;;7.80;5.40;;;;;;;9.35;94.77;94495.03;5013023;28;20446;-74
2023/11/15 00:24:29;;;;;;;6.87;6.17;;;;;;;9.42;95.09;94517.13;5031088;28;20451;-74
2023/11/15 00:26:57;;;;;;;8.03;6.33;;;;;;;9.43;94.32;94492.59;5031040;28;20444;-74
2023/11/15 00:29:24;;;;;;;15.00;6.60;;;;;;;9.29;94.11;94476.28;5031110;28;20442;-74
2023/11/15 00:31:57;;;;;;;13.93;5.90;;;;;;;9.29;95.32;94505.09;5012182;28;20449;-74
2023/11/15 00:34:23;;;;;;;9.13;5.20;;;;;;;9.08;96.00;94433.63;5030372;28;20493;-74
2023/11/15 00:36:50;;;;;;;7.50;5.20;;;;;;;9.07;96.94;94476.47;5029597;28;20460;-74
2023/11/15 00:39:18;;;;;;;10.03;6.00;;;;;;;9.16;97.30;94480.91;5030715;28;20448;-74
2023/11/15 00:41:49;;;;;;;11.20;6.33;;;;;;;9.12;97.09;94448.09;4995966;28;20446;-75
2023/11/15 00:44:16;;;;;;;9.83;5.73;;;;;;;9.29;96.98;94489.38;5030599;28;20450;-74
2023/11/15 00:46:44;;;;;;;10.83;6.87;;;;;;;9.43;96.57;94469.00;5030532;28;20452;-75
2023/11/15 00:49:11;;;;;;;12.87;6.40;;;;;;;9.41;96.36;94471.78;5030426;28;20484;-75
2023/11/15 00:51:38;;;;;;;14.10;5.70;;;;;;;9.57;96.19;94502.72;5030271;28;20454;-74
2023/11/15 00:54:06;;;;;;;9.77;6.00;;;;;;;9.58;95.04;94452.81;5029876;28;20454;-75
2023/11/15 00:56:34;;;;;;;8.33;6.50;;;;;;;9.67;94.77;94459.00;5030648;28;20568;-75
2023/11/15 00:59:01;;;;;;;11.30;5.87;;;;;;;9.71;94.87;94491.84;5030389;28;20460;-75
2023/11/15 01:01:28;;;;;;;5.50;4.60;;;;;;;9.78;94.52;94492.94;5030217;28;20454;-74
2023/11/15 01:03:58;;;;;;;13.30;6.63;;;;;;;9.90;94.15;94491.88;4995547;28;20462;-75
2023/11/15 01:06:26;;;;;;;7.63;5.40;;;;;;;9.96;93.06;94479.19;5030376;28;20917;-74
2023/11/15 01:08:54;;;;;;;12.27;6.17;;;;;;;10.00;92.32;94494.50;5030419;28;20449;-74
2023/11/15 01:11:23;;;;;;;7.93;5.43;;;;;;;10.03;92.56;94488.16;5030009;28;20450;-74
2023/11/15 01:13:51;;;;;;;9.07;5.70;;;;;;;10.04;91.59;94492.44;5030371;28;20952;-74
2023/11/15 01:16:18;;;;;;;8.70;6.20;;;;;;;10.00;92.15;94475.31;5030274;28;20482;-75
2023/11/15 01:18:45;;;;;;;9.70;6.30;;;;;;;9.78;93.07;94453.63;5030448;28;20453;-74
2023/11/15 01:21:12;;;;;;;11.37;6.53;;;;;;;9.79;92.79;94462.34;5029992;28;20442;-75
2023/11/15 01:23:39;;;;;;;10.80;5.63;;;;;;;9.84;93.00;94462.78;5030107;28;20446;-74
2023/11/15 01:26:07;;;;;;;11.33;6.03;;;;;;;9.74;93.12;94443.56;5030026;28;20443;-75
2023/11/15 01:28:34;;;;;;;7.97;6.00;;;;;;;9.68;92.89;94454.59;5029903;28;20518;-75
2023/11/15 01:31:03;;;;;;;7.90;5.67;;;;;;;9.64;93.41;94435.72;5030202;28;20537;-74
2023/11/15 01:33:30;;;;;;;13.23;5.93;;;;;;;9.70;93.49;94448.25;5029803;28;20902;-74
2023/11/15 01:35:59;;;;;;;8.77;6.07;;;;;;;9.71;93.45;94443.84;5029788;28;20493;-75
2023/11/15 01:38:25;;;;;;;12.10;7.20;;;;;;;9.71;93.20;94436.00;5029922;28;20446;-75
2023/11/15 01:40:53;;;;;;;9.43;6.47;;;;;;;9.72;93.40;94451.56;5029889;28;20462;-75
2023/11/15 01:43:20;;;;;;;8.43;6.33;;;;;;;9.74;93.16;94462.75;4995027;28;20481;-75
2023/11/15 01:45:47;;;;;;;11.47;7.20;;;;;;;9.73;92.93;94447.16;5029706;28;20447;-75
2023/11/15 01:48:16;;;;;;;11.13;7.20;;;;;;;9.73;92.87;94449.78;4994940;28;20988;-74
2023/11/15 01:50:47;;;;;;;11.57;7.17;;;;;;;9.73;92.51;94434.88;5029891;28;20530;-74
2023/11/15 01:53:15;;;;;;;15.20;7.17;;;;;;;9.73;92.86;94445.38;5011088;28;20498;-75
2023/11/15 01:55:45;;;;;;;11.87;7.60;;;;;;;9.76;93.16;94450.34;5029467;28;20505;-74
2023/11/15 01:58:14;;;;;;;9.67;6.80;;;;;;;9.72;92.66;94440.25;5029848;28;20462;-74
2023/11/15 02:00:41;;;;;;;12.33;5.80;;;;;;;9.62;92.23;94427.16;5030033;28;20442;-75
2023/11/15 02:03:08;;;;;;;8.53;6.00;;;;;;;9.59;93.06;94417.78;5029600;28;20446;-74
2023/11/15 02:05:36;;;;;;;10.10;6.13;;;;;;;9.59;92.33;94412.56;5029702;28;20473;-74
2023/11/15 02:08:04;;;;;;;10.27;6.63;;;;;;;9.38;93.13;94408.38;5029644;28;20446;-75
2023/11/15 02:10:31;;;;;;;13.03;7.77;;;;;;;9.45;93.39;94426.00;5029578;28;20442;-74
2023/11/15 02:13:00;;;;;;;11.63;5.90;;;;;;;9.49;93.32;94403.81;5029892;28;20449;-75
2023/11/15 02:15:29;;;;;;;12.20;8.10;;;;;;;9.36;94.06;94391.97;5029284;28;20486;-74
2023/11/15 02:17:56;;;;;;;9.70;7.10;;;;;;;9.41;94.32;94392.38;5029343;28;20442;-75
2023/11/15 02:20:23;;;;;;;13.90;7.57;;;;;;;9.44;94.32;94372.00;5029273;28;20450;-74
2023/11/15 02:22:52;;;;;;;13.00;8.80;;;;;;;9.51;94.92;94356.56;5029456;28;20470;-74
2023/11/15 02:25:21;;;;;;;7.70;6.43;;;;;;;9.13;96.86;94349.47;5026989;28;20441;-74
2023/11/15 02:27:47;;;;;;;8.23;6.93;;;;;;;9.20;97.11;94351.41;5029476;28;20760;-75
2023/11/15 02:30:14;;;;;;;10.73;7.50;;;;;;;9.23;97.77;94343.28;5029149;28;20443;-74
2023/11/15 02:32:43;;;;;;;11.27;7.50;;;;;;;9.32;97.82;94347.72;5029141;28;20448;-75
2023/11/15 02:35:10;;;;;;;13.23;7.40;;;;;;;9.43;97.10;94327.59;5028973;28;20577;-74
2023/11/15 02:37:37;;;;;;;11.07;7.30;;;;;;;9.50;96.95;94333.94;5029277;28;20495;-75
2023/11/15 02:40:08;;;;;;;14.00;6.30;;;;;;;9.58;95.88;94341.97;5029269;28;20455;-74
2023/11/15 02:42:37;;;;;;;14.43;6.53;;;;;;;9.52;95.98;94317.13;5029147;28;20452;-76
2023/11/15 02:45:05;;;;;;;9.20;7.00;;;;;;;9.50;95.97;94334.78;5029194;28;20864;-75
2023/11/15 02:47:32;;;;;;;19.37;7.00;;;;;;;9.55;96.57;94357.97;4994387;28;20438;-75
2023/11/15 02:49:58;;;;;;;15.47;8.20;;;;;;;9.61;95.67;94353.00;5029152;28;20449;-75
2023/11/15 02:52:26;;;;;;;8.80;7.43;;;;;;;9.55;95.70;94326.53;4994507;28;20434;-76
2023/11/15 02:54:58;;;;;;;10.33;7.00;;;;;;;9.55;95.76;94353.53;5029097;28;20564;-76
2023/11/15 02:57:26;;;;;;;12.50;8.70;;;;;;;9.58;95.88;94363.75;5028941;28;20963;-75
2023/11/15 02:59:54;;;;;;;12.60;8.37;;;;;;;9.14;97.14;94346.72;5030052;28;20446;-75
2023/11/15 03:02:21;;;;;;;12.93;10.50;;;;;;;9.32;97.50;94389.63;5032352;28;20541;-75
2023/11/15 03:04:48;;;;;;;13.50;9.33;;;;;;;9.23;97.02;94338.03;5032476;28;20449;-75
2023/11/15 03:07:15;;;;;;;12.10;9.30;;;;;;;8.86;99.46;94344.84;5032221;28;20865;-75
2023/11/15 03:09:42;;;;;;;16.33;9.07;;;;;;;8.83;100.00;94363.44;5032235;28;20453;-75
2023/11/15 03:12:09;;;;;;;17.40;9.70;;;;;;;8.92;99.87;94386.19;5032183;28;20445;-75
2023/11/15 03:14:36;;;;;;;11.07;8.97;;;;;;;8.98;99.92;94354.28;5032189;28;20464;-75
2023/11/15 03:17:14;;;;;;;14.33;9.43;;;;;;;8.75;100.00;94358.88;5032010;28;20489;-75
2023/11/15 03:19:40;;;;;;;14.50;9.13;;;;;;;8.90;100.00;94368.00;5032378;28;20467;-76
2023/11/15 03:22:07;;;;;;;16.10;8.83;;;;;;;9.04;99.87;94374.66;4997207;28;20446;-75
2023/11/15 03:24:34;;;;;;;13.40;8.97;;;;;;;9.01;99.23;94369.72;5031843;28;20453;-75
2023/11/15 03:27:01;;;;;;;16.90;8.30;;;;;;;8.80;99.57;94325.28;5031920;28;20455;-76
2023/11/15 03:29:28;;;;;;;12.27;8.80;;;;;;;8.91;99.66;94374.06;5031665;28;20491;-75
2023/11/15 03:31:54;;;;;;;12.60;8.97;;;;;;;8.80;100.00;94314.00;5032005;28;20441;-75
2023/11/15 03:34:23;;;;;;;15.03;9.27;;;;;;;8.78;100.00;94342.09;4996992;28;20451;-75
2023/11/15 03:36:50;;;;;;;19.20;8.50;;;;;;;8.81;100.00;94336.59;5031713;28;20547;-77
2023/11/15 03:39:19;;;;;;;11.30;7.70;;;;;;;8.85;100.00;94366.75;5031531;28;20452;-75
2023/11/15 03:41:46;;;;;;;10.60;7.70;;;;;;;8.72;100.00;94309.44;5013518;28;20445;-76
2023/11/15 03:44:15;;;;;;;10.20;8.30;;;;;;;8.95;100.00;94329.19;5031522;28;20453;-75
2023/11/15 03:46:42;;;;;;;13.77;8.03;;;;;;;9.12;100.00;94314.63;5031787;28;20444;-76
2023/11/15 03:49:09;;;;;;;16.67;8.87;;;;;;;9.22;98.91;94335.56;5031519;28;20449;-75
2023/11/15 03:51:37;;;;;;;14.27;10.13;;;;;;;9.32;98.34;94332.03;5031583;28;20458;-75
2023/11/15 03:54:04;;;;;;;19.23;11.27;;;;;;;9.30;97.97;94299.09;5031304;28;20450;-75
2023/11/15 03:56:31;;;;;;;14.60;10.03;;;;;;;9.27;97.78;94330.78;5031324;28;21050;-76
2023/11/15 03:58:58;;;;;;;24.23;9.60;;;;;;;9.28;98.29;94351.59;5031627;28;20753;-76
2023/11/15 04:01:25;;;;;;;13.00;7.50;;;;;;;9.22;97.74;94270.13;5029851;28;20450;-76
2023/11/15 04:03:52;;;;;;;9.83;7.10;;;;;;;9.04;99.74;94280.47;5029836;28;20457;-76
2023/11/15 04:06:19;;;;;;;11.27;6.73;;;;;;;9.24;99.85;94310.91;5031355;28;20449;-76
2023/11/15 04:08:47;;;;;;;8.07;6.30;;;;;;;9.41;99.99;94340.84;5031710;28;20853;-76
2023/11/15 04:11:14;;;;;;;13.00;7.60;;;;;;;9.44;98.80;94310.94;5012154;28;20438;-77
2023/11/15 04:13:41;;;;;;;8.13;6.43;;;;;;;9.45;98.60;94291.63;5030606;28;20442;-76
2023/11/15 04:16:08;;;;;;;11.43;6.93;;;;;;;9.52;98.70;94261.31;5030555;28;21029;-76
2023/11/15 04:18:38;;;;;;;9.87;6.73;;;;;;;9.66;98.60;94273.16;5031045;28;20456;-76
2023/11/15 04:21:06;;;;;;;12.53;6.40;;;;;;;9.73;98.44;94319.59;5031376;28;20793;-76
2023/11/15 04:23:38;;;;;;;8.93;6.70;;;;;;;9.67;98.14;94278.25;5031033;28;20803;-76
2023/11/15 04:26:06;;;;;;;9.67;7.17;;;;;;;9.72;98.22;94296.19;5030935;28;20465;-76
2023/11/15 04:28:33;;;;;;;10.53;7.17;;;;;;;9.68;98.67;94263.38;5097374;28;20438;-75
2023/11/15 04:31:00;;;;;;;16.40;6.70;;;;;;;9.76;97.75;94303.59;5030583;28;20454;-76
2023/11/15 04:33:27;;;;;;;15.30;6.87;;;;;;;9.75;98.13;94249.56;5011761;28;20442;-76
2023/11/15 04:35:53;;;;;;;12.40;6.70;;;;;;;9.78;98.71;94306.09;5030455;28;20509;-76
2023/11/15 04:38:21;;;;;;;8.23;5.90;;;;;;;9.88;97.93;94246.66;5030408;28;20453;-78
2023/11/15 04:40:47;;;;;;;13.13;7.20;;;;;;;9.77;98.57;94265.97;5031017;28;20511;-78
2023/11/15 04:43:16;;;;;;;7.53;6.70;;;;;;;9.90;97.75;94277.00;5030426;28;20443;-78
2023/11/15 04:45:43;;;;;;;9.13;7.33;;;;;;;9.91;98.28;94254.22;5030487;28;20474;-78
2023/11/15 04:48:11;;;;;;;5.93;5.30;;;;;;;9.99;97.04;94245.66;5012337;28;20439;-77
2023/11/15 04:50:38;;;;;;;8.60;5.23;;;;;;;10.06;97.95;94276.38;5030974;28;20434;-77
2023/11/15 04:53:07;;;;;;;8.57;6.37;;;;;;;10.10;97.27;94238.44;5031141;28;20447;-79
2023/11/15 04:55:33;;;;;;;11.63;5.67;;;;;;;10.22;96.03;94226.00;5030651;28;20486;-79
2023/11/15 04:58:00;;;;;;;10.13;7.27;;;;;;;10.33;95.50;94240.72;5012167;28;20446;-77
2023/11/15 05:00:29;;;;;;;9.40;6.23;;;;;;;10.36;95.68;94232.56;5030514;28;20466;-78
2023/11/15 05:02:56;;;;;;;13.50;5.67;;;;;;;10.51;95.29;94218.00;5030185;28;20446;-78
2023/11/15 05:05:22;;;;;;;9.30;6.87;;;;;;;10.50;95.39;94235.56;5030605;28;20470;-78
2023/11/15 05:07:49;;;;;;;12.20;7.97;;;;;;;10.61;95.03;94262.56;5030571;28;20800;-77
2023/11/15 05:10:18;;;;;;;7.07;6.37;;;;;;;10.46;94.94;94221.06;5030056;28;20466;-77
2023/11/15 05:12:45;;;;;;;12.40;6.60;;;;;;;10.37;95.35;94227.19;5030114;28;20526;-76
2023/11/15 05:15:11;;;;;;;11.40;7.97;;;;;;;10.50;94.73;94235.56;5029685;28;21029;-77
2023/11/15 05:17:40;;;;;;;12.13;7.90;;;;;;;10.52;94.58;94212.63;5029576;28;20498;-76
2023/11/15 05:20:08;;;;;;;8.70;5.53;;;;;;;10.18;96.32;94224.63;5029490;28;20446;-76
2023/11/15 05:22:35;;;;;;;62.60;33.87;;;;;;;10.06;95.67;94241.47;5028984;28;20890;-77
2023/11/15 05:25:01;;;;;;;12.07;7.70;;;;;;;9.99;94.84;94225.50;5029797;28;20949;-76
2023/11/15 05:27:31;;;;;;;13.20;8.60;;;;;;;9.60;95.57;94220.38;5029677;28;20450;-76
2023/11/15 05:29:58;;;;;;;9.90;7.13;;;;;;;9.42;96.71;94210.75;4963075;28;20438;-76
2023/11/15 05:32:25;;;;;;;13.80;9.10;;;;;;;9.52;97.62;94224.63;5029453;28;20885;-76
2023/11/15 05:34:53;;;;;;;20.97;13.63;;;;;;;9.59;97.31;94212.66;5029610;28;20505;-76
2023/11/15 05:37:20;;;;;;;15.83;11.53;;;;;;;9.62;98.18;94225.47;5029794;28;20482;-76
2023/11/15 05:39:47;;;;;;;16.90;10.70;;;;;;;9.61;97.38;94206.31;5029886;28;20836;-76
2023/11/15 05:42:14;;;;;;;20.40;9.93;;;;;;;9.62;98.94;94207.97;5029597;28;20442;-76
2023/11/15 05:44:41;;;;;;;25.57;15.00;;;;;;;10.15;97.79;94204.75;5029743;28;20442;-76
2023/11/15 05:47:08;;;;;;;23.33;12.00;;;;;;;10.59;95.08;94219.91;5029352;28;20450;-76
2023/11/15 05:49:34;;;;;;;15.63;10.77;;;;;;;10.98;91.95;94215.22;5029544;28;20442;-76
2023/11/15 05:52:03;;;;;;;15.13;10.90;;;;;;;11.13;89.92;94201.44;5029540;28;20450;-76
2023/11/15 05:54:32;;;;;;;15.87;10.30;;;;;;;11.22;90.47;94209.38;5029623;28;20880;-76
2023/11/15 05:56:58;;;;;;;26.33;14.10;;;;;;;11.36;89.21;94214.13;5011195;28;20491;-76
2023/11/15 05:59:26;;;;;;;28.30;13.93;;;;;;;11.07;88.41;94199.41;5029300;28;20499;-76
2023/11/15 06:01:54;;;;;;;25.23;11.47;;;;;;;10.99;89.19;94178.34;5029930;28;20451;-77
2023/11/15 06:04:21;;;;;;;17.70;11.60;;;;;;;11.01;90.30;94200.03;5029350;28;20508;-76
2023/11/15 06:06:47;;;;;;;28.80;17.63;;;;;;;10.97;89.69;94196.03;5029654;28;20450;-76
2023/11/15 06:09:17;;;;;;;23.80;14.90;;;;;;;10.88;89.44;94194.31;5010956;28;20439;-76
2023/11/15 06:11:44;;;;;;;27.20;14.63;;;;;;;10.92;90.53;94207.94;5028850;28;21001;-74
2023/11/15 06:14:15;;;;;;;24.57;15.40;;;;;;;10.88;90.12;94215.28;5029355;28;20438;-75
2023/11/15 06:16:42;;;;;;;21.70;14.30;;;;;;;10.97;90.71;94211.78;5029301;28;20486;-76
2023/11/15 06:19:09;;;;;;;15.27;10.97;;;;;;;10.91;91.57;94193.19;5029109;28;20446;-76
2023/11/15 06:21:36;;;;;;;28.47;15.97;;;;;;;11.00;93.09;94221.19;5029005;28;20530;-76
2023/11/15 06:24:04;;;;;;;26.40;16.73;;;;;;;11.16;92.50;94198.50;5028738;28;20766;-76
2023/11/15 06:26:37;;;;;;;28.73;16.63;;;;;;;11.28;91.58;94214.06;5028854;28;20450;-72
2023/11/15 06:29:05;;;;;;;22.97;13.80;;;;;;;11.34;90.82;94208.19;5029011;28;20465;-75
2023/11/15 06:31:36;;;;;;;18.07;13.50;;;;;;;11.56;91.65;94233.97;5028859;28;20448;-76
2023/11/15 06:34:04;;;;;;;19.57;11.90;;;;;;;11.68;89.68;94222.25;5028624;28;20472;-77
2023/11/15 06:36:36;;;;;;;16.70;11.10;;;;;;;11.75;89.29;94223.28;5031902;28;20494;-79
2023/11/15 06:39:08;;;;;;;18.23;11.00;;;;;;;11.90;91.26;94231.47;5032806;28;20538;-78
2023/11/15 06:41:38;;;;;;;17.67;12.73;;;;;;;11.95;88.66;94207.34;5034891;27;20458;-76
2023/11/15 06:44:08;;;;;;;19.70;13.30;;;;;;;12.05;89.93;94224.66;5046746;28;20482;-76
2023/11/15 06:46:43;;;;;;;17.80;12.60;;;;;;;12.18;89.83;94212.91;5057690;27;20451;-76
2023/11/15 06:49:12;;;;;;;24.63;14.20;;;;;;;12.10;88.50;94222.38;5018761;28;20444;-76
2023/11/15 06:51:40;;;;;;;26.03;13.80;;;;;;;12.17;89.05;94221.78;5032162;28;20468;-76
2023/11/15 06:54:12;;;;;;;32.80;15.93;;;;;;;12.00;87.80;94202.44;5032128;28;20485;-75
2023/11/15 06:56:43;;;;;;;24.10;13.80;;;;;;;12.10;88.27;94237.34;5032769;28;20491;-76
2023/11/15 06:59:10;;;;;;;17.93;14.40;;;;;;;12.15;88.23;94229.84;5031992;28;20500;-76
2023/11/15 07:01:37;;;;;;;18.80;11.83;;;;;;;12.17;88.19;94227.88;5031549;28;20444;-75
2023/11/15 07:04:04;;;;;;;20.37;12.27;;;;;;;12.12;88.79;94235.38;5032269;27;20444;-76
2023/11/15 07:06:32;;;;;;;21.53;10.97;;;;;;;11.98;88.34;94217.56;5031520;28;20473;-76
2023/11/15 07:08:59;;;;;;;20.23;11.10;;;;;;;12.04;90.66;94243.22;5031550;28;20471;-76
2023/11/15 07:11:26;;;;;;;16.10;11.53;;;;;;;11.91;89.56;94187.63;5031856;28;20829;-76
2023/11/15 07:13:55;;;;;;;20.17;12.80;;;;;;;11.98;90.59;94235.97;5014513;28;20496;-76
2023/11/15 07:16:22;;;;;;;19.60;13.60;;;;;;;11.98;90.31;94217.56;5031372;28;20508;-76
2023/11/15 07:18:49;;;;;;;23.67;13.20;;;;;;;12.15;91.24;94236.91;5031453;28;20450;-77
2023/11/15 07:21:15;;;;;;;13.53;9.70;;;;;;;12.12;90.09;94230.13;5012802;28;20853;-76
2023/11/15 07:23:42;;;;;;;22.40;12.60;;;;;;;12.33;90.43;94249.00;5031503;28;20445;-76
2023/11/15 07:26:10;;;;;;;17.37;12.80;;;;;;;12.35;89.09;94199.66;5031414;28;20470;-76
2023/11/15 07:28:42;;;;;;;28.63;13.70;;;;;;;12.52;89.46;94249.75;5031485;28;20918;-77
2023/11/15 07:31:13;;;;;;;21.77;11.90;;;;;;;12.77;90.11;94258.56;5031753;28;20452;-76
2023/11/15 07:33:40;;;;;;;13.90;9.17;;;;;;;12.94;89.59;94229.50;5031485;28;20438;-76
2023/11/15 07:36:08;;;;;;;17.93;9.97;;;;;;;13.01;89.13;94234.97;5012759;28;20441;-76
2023/11/15 07:38:35;;;;;;;21.50;11.70;;;;;;;13.19;89.36;94209.31;5030916;28;20488;-76
2023/11/15 07:41:02;;;;;;;22.10;13.70;;;;;;;13.38;88.65;94239.00;4996428;28;20451;-77
2023/11/15 07:43:29;;;;;;;19.80;14.10;;;;;;;13.46;85.96;94224.00;5031068;28;20546;-77
2023/11/15 07:45:56;;;;;;;21.87;13.70;;;;;;;13.40;85.87;94198.31;4995771;28;20440;-77
2023/11/15 07:48:25;;;;;;;19.27;10.93;;;;;;;13.40;87.25;94231.75;5031446;28;20542;-76
2023/11/15 07:50:52;;;;;;;20.13;8.67;;;;;;;13.28;85.79;94210.16;5030582;28;20494;-77
2023/11/15 07:53:19;;;;;;;18.33;9.70;;;;;;;13.28;86.73;94231.22;5030668;28;20447;-76
2023/11/15 07:55:46;;;;;;;16.43;10.20;;;;;;;13.42;87.10;94225.34;5030469;28;20470;-77
2023/11/15 07:58:12;;;;;;;17.80;11.10;;;;;;;13.44;87.14;94249.72;5031186;28;20575;-77
2023/11/15 08:00:40;;;;;;;14.73;9.83;;;;;;;13.53;87.60;94222.38;5030912;28;20446;-76
2023/11/15 08:03:07;;;;;;;14.37;11.10;;;;;;;13.50;86.79;94227.97;5031341;28;20443;-77
2023/11/15 08:05:36;;;;;;;19.87;10.67;;;;;;;13.52;87.64;94243.63;4996166;28;20983;-76
2023/11/15 08:08:03;;;;;;;19.93;10.53;;;;;;;13.58;87.31;94212.16;5026309;28;20512;-76
2023/11/15 08:10:31;;;;;;;15.70;10.77;;;;;;;13.54;87.17;94216.09;5029958;28;20438;-77
2023/11/15 08:12:57;;;;;;;27.30;10.07;;;;;;;13.73;89.45;94254.50;5031341;28;20441;-81
2023/11/15 08:15:25;;;;;;;18.77;10.10;;;;;;;13.90;87.34;94231.59;5032459;28;20452;-80
2023/11/15 08:17:52;;;;;;;11.67;8.93;;;;;;;13.93;87.04;94226.81;5032328;28;20550;-80
2023/11/15 08:20:19;;;;;;;18.00;8.80;;;;;;;14.11;87.34;94250.34;5032567;28;20443;-80
2023/11/15 08:22:47;;;;;;;14.30;9.33;;;;;;;14.25;88.53;94254.97;5032581;28;20446;-80
2023/11/15 08:25:14;;;;;;;14.80;7.77;;;;;;;14.23;85.29;94251.66;5032494;28;20432;-80
2023/11/15 08:27:41;;;;;;;8.20;7.30;;;;;;;14.19;84.41;94234.53;5032523;28;20488;-80
2023/11/15 08:30:12;;;;;;;8.97;6.27;;;;;;;14.36;87.21;94250.31;5032686;28;20507;-80
2023/11/15 08:32:41;;;;;;;14.63;5.60;;;;;;;14.47;84.90;94218.31;5032182;28;20479;-80
2023/11/15 08:35:09;;;;;;;8.00;6.20;;;;;;;14.57;86.77;94242.72;5032064;28;20955;-80
2023/11/15 08:37:37;;;;;;;6.43;5.67;;;;;;;14.83;94.78;94243.25;5031089;28;20483;-80
2023/11/15 08:40:10;;;;;;;12.60;5.20;;;;;;;14.90;88.35;94247.84;5030751;28;20449;-80
2023/11/15 08:42:37;;;;;;;7.17;4.40;;;;;;;14.88;83.57;94261.25;5030471;28;20447;-80
2023/11/15 08:45:06;;;;;;;8.20;5.40;;;;;;;14.90;81.61;94239.94;5011621;28;20458;-80
2023/11/15 08:47:33;;;;;;;8.43;5.57;;;;;;;14.98;82.46;94229.31;5030191;28;20540;-80
2023/11/15 08:50:00;;;;;;;12.77;4.30;;;;;;;15.01;81.47;94255.38;5030223;28;20455;-80
2023/11/15 08:52:26;;;;;;;16.60;5.40;;;;;;;15.16;84.00;94256.31;5029898;28;20801;-80
